PWSweather.com
Personal Weather Stations
Station Observations
21805
AntwerpBE

AntwerpBE

Lat: 51.28072820000001, Lon: 4.420431000000008

Elevation: 12

Station Type: Davis VP Pro II

http://www.akker.be

Latest ConditionsUpdated 7:11:15 PM GMT+01:01 Sunday, Jan 26, 2020
Currently Today's Max Today's Min Today's Average
Temperature 47.4°F8.6°C 51.6°F10.9°C 35.9°F2.2°C 41.9°F5.5°C
Dew Point 40.9°F4.9°C 43.9°F6.6°C 33.5°F0.8°C 37.9°F3.3°C
Winds 5.8 mph SSW9.3 kmh SSW 8.0 mph -12.9 kmh - - 2.5 mph 4.0 kmh
Wind Gusts 11.5 mph18.5 kmh 13.8 mph22.2 kmh - -
Humidity 78% 92% 75% 86%
Pressure 29.93 in1013.5 mb 30.10 in1019.3 mb 29.93 in1013.5 mb -
Precipitation - 0.01 in0.3 mm - -
Hour Temp Dew Point Humidity Winds Wind Gusts Pressure Precip Precip Rate Daily Precip Total
07:11 PM 47.4°F8.6°C 40.9°F4.9°C 78% 5.8 mph SSW9.3 kmh SSW 11.5 mph18.5 kmh 29.93 in1013.5 mb - 0.01 in0.3 mm 0.01 in0.3 mm
07:05 PM 47.6°F8.7°C 41.1°F5.1°C 78% 5.8 mph SW9.3 kmh SW 11.5 mph18.5 kmh 29.93 in1013.5 mb - 0.01 in0.3 mm 0.01 in0.3 mm
07:00 PM 47.9°F8.8°C 41.7°F5.4°C 79% 5.8 mph S9.3 kmh S 10.3 mph16.6 kmh 29.93 in1013.5 mb - 0.01 in0.3 mm 0.01 in0.3 mm
06:54 PM 48.1°F8.9°C 41.9°F5.5°C 79% 5.8 mph SW9.3 kmh SW 10.3 mph16.6 kmh 29.93 in1013.5 mb - 0.01 in0.3 mm 0.01 in0.3 mm
06:48 PM 48.3°F9.1°C 42.1°F5.6°C 79% 5.8 mph SW9.3 kmh SW 11.5 mph18.5 kmh 29.94 in1013.9 mb - 0.01 in0.3 mm 0.01 in0.3 mm
06:43 PM 48.5°F9.2°C 42.3°F5.7°C 79% 6.9 mph S11.1 kmh S 11.5 mph18.5 kmh 29.94 in1013.9 mb - 0.01 in0.3 mm 0.01 in0.3 mm
06:37 PM 48.5°F9.2°C 42.3°F5.7°C 79% 5.8 mph S9.3 kmh S 11.5 mph18.5 kmh 29.94 in1013.9 mb - 0.01 in0.3 mm 0.01 in0.3 mm
06:31 PM 48.5°F9.2°C 42.3°F5.7°C 79% 5.8 mph SSW9.3 kmh SSW 11.5 mph18.5 kmh 29.94 in1013.9 mb - 0.01 in0.3 mm 0.01 in0.3 mm
06:26 PM 48.6°F9.2°C 42.3°F5.7°C 79% 5.8 mph SW9.3 kmh SW 11.5 mph18.5 kmh 29.94 in1013.9 mb - 0.01 in0.3 mm 0.01 in0.3 mm
06:20 PM 48.6°F9.2°C 42.7°F5.9°C 80% 5.8 mph S9.3 kmh S 10.3 mph16.6 kmh 29.94 in1013.9 mb - 0.01 in0.3 mm 0.01 in0.3 mm
06:15 PM 48.6°F9.2°C 42.7°F5.9°C 80% 3.4 mph SSW5.5 kmh SSW 10.3 mph16.6 kmh 29.94 in1013.9 mb - 0.01 in0.3 mm 0.01 in0.3 mm
06:09 PM 48.6°F9.2°C 42.8°F6.0°C 80% 5.8 mph SSW9.3 kmh SSW 11.5 mph18.5 kmh 29.94 in1013.9 mb - 0.01 in0.3 mm 0.01 in0.3 mm
06:03 PM 48.6°F9.2°C 42.7°F5.9°C 80% 5.8 mph SSW9.3 kmh SSW 8.0 mph12.9 kmh 29.93 in1013.5 mb - 0.01 in0.3 mm 0.01 in0.3 mm
05:58 PM 48.6°F9.2°C 42.7°F5.9°C 80% 5.8 mph S9.3 kmh S 8.0 mph12.9 kmh 29.93 in1013.5 mb - 0.01 in0.3 mm 0.01 in0.3 mm
05:52 PM 48.6°F9.2°C 42.7°F5.9°C 80% 5.8 mph S9.3 kmh S 11.5 mph18.5 kmh 29.93 in1013.5 mb - 0.01 in0.3 mm 0.01 in0.3 mm
05:46 PM 48.7°F9.3°C 42.8°F6.0°C 80% 4.6 mph S7.4 kmh S 9.2 mph14.8 kmh 29.93 in1013.5 mb - 0.01 in0.3 mm 0.01 in0.3 mm
05:41 PM 48.7°F9.3°C 42.8°F6.0°C 80% 5.8 mph S9.3 kmh S 8.0 mph12.9 kmh 29.93 in1013.5 mb - 0.01 in0.3 mm 0.01 in0.3 mm
05:35 PM 48.9°F9.4°C 42.7°F5.9°C 79% 5.8 mph S9.3 kmh S 5.8 mph9.3 kmh 29.93 in1013.5 mb - 0.01 in0.3 mm 0.01 in0.3 mm
05:30 PM 48.9°F9.4°C 42.7°F5.9°C 79% 5.8 mph S9.3 kmh S 10.3 mph16.6 kmh 29.93 in1013.5 mb - 0.01 in0.3 mm 0.01 in0.3 mm
05:24 PM 49.0°F9.4°C 42.8°F6.0°C 79% 6.9 mph S11.1 kmh S 11.5 mph18.5 kmh 29.93 in1013.5 mb - 0.01 in0.3 mm 0.01 in0.3 mm
05:18 PM 49.1°F9.5°C 42.9°F6.1°C 79% 4.6 mph SSW7.4 kmh SSW 9.2 mph14.8 kmh 29.93 in1013.5 mb - 0.01 in0.3 mm 0.01 in0.3 mm
05:13 PM 49.1°F9.5°C 42.9°F6.1°C 79% 6.9 mph S11.1 kmh S 10.3 mph16.6 kmh 29.93 in1013.5 mb - 0.01 in0.3 mm 0.01 in0.3 mm
05:07 PM 49.2°F9.6°C 43.0°F6.1°C 79% 5.8 mph SSW9.3 kmh SSW 11.5 mph18.5 kmh 29.94 in1013.9 mb - 0.01 in0.3 mm 0.01 in0.3 mm
05:01 PM 49.3°F9.6°C 42.7°F5.9°C 78% 3.4 mph S5.5 kmh S 10.3 mph16.6 kmh 29.94 in1013.9 mb - 0.01 in0.3 mm 0.01 in0.3 mm
04:56 PM 49.3°F9.6°C 42.8°F6.0°C 78% 2.3 mph S3.7 kmh S 5.8 mph9.3 kmh 29.94 in1013.9 mb - 0.01 in0.3 mm 0.01 in0.3 mm
04:50 PM 49.6°F9.8°C 43.0°F6.1°C 78% 2.3 mph SSW3.7 kmh SSW 5.8 mph9.3 kmh 29.94 in1013.9 mb - 0.01 in0.3 mm 0.01 in0.3 mm
04:45 PM 49.7°F9.8°C 42.8°F6.0°C 77% 4.6 mph S7.4 kmh S 6.9 mph11.1 kmh 29.93 in1013.5 mb - 0.01 in0.3 mm 0.01 in0.3 mm
04:39 PM 50.0°F10.0°C 43.0°F6.1°C 77% 3.4 mph S5.5 kmh S 6.9 mph11.1 kmh 29.93 in1013.5 mb - 0.01 in0.3 mm 0.01 in0.3 mm
04:33 PM 50.1°F10.1°C 43.2°F6.2°C 77% 4.6 mph SSW7.4 kmh SSW 10.3 mph16.6 kmh 29.94 in1013.9 mb - 0.01 in0.3 mm 0.01 in0.3 mm
04:28 PM 50.3°F10.2°C 43.4°F6.3°C 77% 4.6 mph SSW7.4 kmh SSW 8.0 mph12.9 kmh 29.94 in1013.9 mb - 0.01 in0.3 mm 0.01 in0.3 mm
04:22 PM 50.3°F10.2°C 43.4°F6.3°C 77% 4.6 mph SSW7.4 kmh SSW 8.0 mph12.9 kmh 29.94 in1013.9 mb - 0.01 in0.3 mm 0.01 in0.3 mm
04:16 PM 50.4°F10.2°C 43.5°F6.4°C 77% 3.4 mph SSW5.5 kmh SSW 9.2 mph14.8 kmh 29.94 in1013.9 mb - 0.01 in0.3 mm 0.01 in0.3 mm
04:11 PM 50.4°F10.2°C 43.5°F6.4°C 77% 3.4 mph S5.5 kmh S 5.8 mph9.3 kmh 29.94 in1013.9 mb - 0.01 in0.3 mm 0.01 in0.3 mm
04:05 PM 50.4°F10.2°C 43.5°F6.4°C 77% 1.1 mph SSW1.8 kmh SSW 3.4 mph5.5 kmh 29.94 in1013.9 mb - 0.01 in0.3 mm 0.01 in0.3 mm
04:00 PM 50.5°F10.3°C 43.5°F6.4°C 77% 2.3 mph S3.7 kmh S 6.9 mph11.1 kmh 29.94 in1013.9 mb - 0.01 in0.3 mm 0.01 in0.3 mm
03:54 PM 50.5°F10.3°C 43.2°F6.2°C 76% 3.4 mph S5.5 kmh S 6.9 mph11.1 kmh 29.94 in1013.9 mb - 0.01 in0.3 mm 0.01 in0.3 mm
03:48 PM 50.5°F10.3°C 43.2°F6.2°C 76% 2.3 mph S3.7 kmh S 8.0 mph12.9 kmh 29.94 in1013.9 mb - 0.01 in0.3 mm 0.01 in0.3 mm
03:43 PM 50.5°F10.3°C 43.2°F6.2°C 76% Calm Calm -- 29.94 in1013.9 mb - 0.01 in0.3 mm 0.01 in0.3 mm
03:37 PM 50.5°F10.3°C 43.2°F6.2°C 76% Calm Calm -- 29.94 in1013.9 mb - 0.01 in0.3 mm 0.01 in0.3 mm
03:31 PM 50.6°F10.3°C 43.3°F6.3°C 76% 6.9 mph SSW11.1 kmh SSW 11.5 mph18.5 kmh 29.94 in1013.9 mb - 0.01 in0.3 mm 0.01 in0.3 mm
03:26 PM 50.7°F10.4°C 43.4°F6.3°C 76% 6.9 mph SSW11.1 kmh SSW 11.5 mph18.5 kmh 29.94 in1013.9 mb - 0.01 in0.3 mm 0.01 in0.3 mm
03:20 PM 50.8°F10.4°C 43.5°F6.4°C 76% 8.0 mph S12.9 kmh S 11.5 mph18.5 kmh 29.94 in1013.9 mb - 0.01 in0.3 mm 0.01 in0.3 mm
03:15 PM 50.8°F10.4°C 43.5°F6.4°C 76% 4.6 mph S7.4 kmh S 9.2 mph14.8 kmh 29.95 in1014.2 mb - 0.01 in0.3 mm 0.01 in0.3 mm
03:09 PM 50.9°F10.5°C 43.6°F6.4°C 76% 5.8 mph SSW9.3 kmh SSW 10.3 mph16.6 kmh 29.95 in1014.2 mb - 0.01 in0.3 mm 0.01 in0.3 mm
03:03 PM 51.1°F10.6°C 43.5°F6.4°C 75% 6.9 mph S11.1 kmh S 11.5 mph18.5 kmh 29.95 in1014.2 mb - 0.01 in0.3 mm 0.01 in0.3 mm
02:58 PM 51.5°F10.8°C 43.8°F6.6°C 75% 6.9 mph SSW11.1 kmh SSW 13.8 mph22.2 kmh 29.95 in1014.2 mb - 0.01 in0.3 mm 0.01 in0.3 mm
02:52 PM 51.6°F10.9°C 43.9°F6.6°C 75% 5.8 mph S9.3 kmh S 9.2 mph14.8 kmh 29.95 in1014.2 mb - 0.01 in0.3 mm 0.01 in0.3 mm
02:46 PM 51.6°F10.9°C 43.9°F6.6°C 75% 5.8 mph S9.3 kmh S 11.5 mph18.5 kmh 29.95 in1014.2 mb - 0.01 in0.3 mm 0.01 in0.3 mm
02:41 PM 51.5°F10.8°C 43.8°F6.6°C 75% 4.6 mph SSW7.4 kmh SSW 5.8 mph9.3 kmh 29.95 in1014.2 mb - 0.01 in0.3 mm 0.01 in0.3 mm
02:35 PM 51.3°F10.7°C 43.6°F6.4°C 75% 4.6 mph S7.4 kmh S 9.2 mph14.8 kmh 29.95 in1014.2 mb - 0.01 in0.3 mm 0.01 in0.3 mm
02:30 PM 51.3°F10.7°C 43.6°F6.4°C 75% 5.8 mph S9.3 kmh S 8.0 mph12.9 kmh 29.96 in1014.6 mb - 0.01 in0.3 mm 0.01 in0.3 mm
02:24 PM 51.2°F10.7°C 43.9°F6.6°C 76% 5.8 mph S9.3 kmh S 9.2 mph14.8 kmh 29.96 in1014.6 mb - 0.01 in0.3 mm 0.01 in0.3 mm
02:18 PM 51.2°F10.7°C 43.9°F6.6°C 76% 5.8 mph S9.3 kmh S 9.2 mph14.8 kmh 29.96 in1014.6 mb - 0.01 in0.3 mm 0.01 in0.3 mm
02:13 PM 50.9°F10.5°C 43.6°F6.4°C 76% 4.6 mph SSE7.4 kmh SSE 6.9 mph11.1 kmh 29.96 in1014.6 mb - 0.01 in0.3 mm 0.01 in0.3 mm
02:07 PM 50.7°F10.4°C 43.4°F6.3°C 76% 4.6 mph S7.4 kmh S 8.0 mph12.9 kmh 29.96 in1014.6 mb - 0.01 in0.3 mm 0.01 in0.3 mm
02:01 PM 50.5°F10.3°C 43.2°F6.2°C 76% 3.4 mph S5.5 kmh S 8.0 mph12.9 kmh 29.96 in1014.6 mb - 0.01 in0.3 mm 0.01 in0.3 mm
01:56 PM 50.5°F10.3°C 43.2°F6.2°C 76% 3.4 mph S5.5 kmh S 8.0 mph12.9 kmh 29.96 in1014.6 mb - 0.01 in0.3 mm 0.01 in0.3 mm
01:50 PM 50.3°F10.2°C 43.3°F6.3°C 77% 4.6 mph S7.4 kmh S 8.0 mph12.9 kmh 29.96 in1014.6 mb - 0.01 in0.3 mm 0.01 in0.3 mm
01:45 PM 50.2°F10.1°C 43.3°F6.3°C 77% 4.6 mph S7.4 kmh S 8.0 mph12.9 kmh 29.96 in1014.6 mb - 0.01 in0.3 mm 0.01 in0.3 mm
01:39 PM 50.2°F10.1°C 42.9°F6.1°C 76% 4.6 mph S7.4 kmh S 6.9 mph11.1 kmh 29.97 in1014.9 mb - 0.01 in0.3 mm 0.01 in0.3 mm
01:33 PM 50.3°F10.2°C 43.0°F6.1°C 76% 4.6 mph S7.4 kmh S 6.9 mph11.1 kmh 29.97 in1014.9 mb - 0.01 in0.3 mm 0.01 in0.3 mm
01:28 PM 50.2°F10.1°C 43.3°F6.3°C 77% 5.8 mph S9.3 kmh S 9.2 mph14.8 kmh 29.98 in1015.2 mb - 0.01 in0.3 mm 0.01 in0.3 mm
01:22 PM 50.0°F10.0°C 43.1°F6.2°C 77% 4.6 mph SSW7.4 kmh SSW 8.0 mph12.9 kmh 29.98 in1015.2 mb - 0.01 in0.3 mm 0.01 in0.3 mm
01:16 PM 49.7°F9.8°C 42.8°F6.0°C 77% 4.6 mph SSW7.4 kmh SSW 4.6 mph7.4 kmh 29.98 in1015.2 mb - 0.01 in0.3 mm 0.01 in0.3 mm
01:11 PM 49.5°F9.7°C 42.9°F6.1°C 78% 4.6 mph S7.4 kmh S 6.9 mph11.1 kmh 29.98 in1015.2 mb - 0.01 in0.3 mm 0.01 in0.3 mm
01:05 PM 49.2°F9.6°C 42.7°F5.9°C 78% 4.6 mph S7.4 kmh S 8.0 mph12.9 kmh 29.98 in1015.2 mb - 0.01 in0.3 mm 0.01 in0.3 mm
01:00 PM 49.0°F9.4°C 42.8°F6.0°C 79% 4.6 mph S7.4 kmh S 10.3 mph16.6 kmh 29.98 in1015.2 mb - 0.01 in0.3 mm 0.01 in0.3 mm
12:54 PM 48.7°F9.3°C 42.5°F5.8°C 79% 4.6 mph S7.4 kmh S 10.3 mph16.6 kmh 29.98 in1015.2 mb - 0.01 in0.3 mm 0.01 in0.3 mm
12:48 PM 48.5°F9.2°C 42.2°F5.7°C 79% 4.6 mph SSW7.4 kmh SSW 9.2 mph14.8 kmh 29.98 in1015.2 mb - 0.01 in0.3 mm 0.01 in0.3 mm
12:43 PM 48.2°F9.0°C 42.3°F5.7°C 80% 5.8 mph S9.3 kmh S 8.0 mph12.9 kmh 29.99 in1015.6 mb - 0.01 in0.3 mm 0.01 in0.3 mm
12:37 PM 47.8°F8.8°C 41.9°F5.5°C 80% 5.8 mph S9.3 kmh S 10.3 mph16.6 kmh 29.99 in1015.6 mb - 0.01 in0.3 mm 0.01 in0.3 mm
12:31 PM 47.6°F8.7°C 42.1°F5.6°C 81% 4.6 mph SSW7.4 kmh SSW 4.6 mph7.4 kmh 29.99 in1015.6 mb - 0.01 in0.3 mm 0.01 in0.3 mm
12:26 PM 47.4°F8.6°C 42.2°F5.7°C 82% 4.6 mph S7.4 kmh S 8.0 mph12.9 kmh 30.00 in1015.9 mb - 0.01 in0.3 mm 0.01 in0.3 mm
12:20 PM 47.1°F8.4°C 42.2°F5.7°C 83% 4.6 mph S7.4 kmh S 8.0 mph12.9 kmh 30.00 in1015.9 mb - 0.01 in0.3 mm 0.01 in0.3 mm
12:15 PM 46.9°F8.3°C 42.0°F5.6°C 83% 3.4 mph S5.5 kmh S 3.4 mph5.5 kmh 30.00 in1015.9 mb - 0.01 in0.3 mm 0.01 in0.3 mm
12:09 PM 46.3°F7.9°C 42.0°F5.6°C 85% 3.4 mph SW5.5 kmh SW 3.4 mph5.5 kmh 30.01 in1016.3 mb - 0.01 in0.3 mm 0.01 in0.3 mm
12:03 PM 46.1°F7.8°C 42.1°F5.6°C 86% 3.4 mph SSW5.5 kmh SSW 5.8 mph9.3 kmh 30.01 in1016.3 mb - 0.01 in0.3 mm 0.01 in0.3 mm
11:58 AM 45.4°F7.4°C 42.4°F5.8°C 89% 5.8 mph SSW9.3 kmh SSW 6.9 mph11.1 kmh 30.01 in1016.3 mb - 0.01 in0.3 mm 0.01 in0.3 mm
11:52 AM 45.0°F7.2°C 42.2°F5.7°C 90% 3.4 mph SSW5.5 kmh SSW 4.6 mph7.4 kmh 30.01 in1016.3 mb - 0.01 in0.3 mm 0.01 in0.3 mm
11:46 AM 44.4°F6.9°C 42.0°F5.6°C 91% 3.4 mph SSW5.5 kmh SSW 4.6 mph7.4 kmh 30.02 in1016.6 mb - 0.01 in0.3 mm 0.01 in0.3 mm
11:41 AM 44.2°F6.8°C 41.8°F5.4°C 91% 4.6 mph SSW7.4 kmh SSW 5.8 mph9.3 kmh 30.02 in1016.6 mb - 0.01 in0.3 mm 0.01 in0.3 mm
11:35 AM 43.7°F6.5°C 41.3°F5.2°C 91% 3.4 mph SSW5.5 kmh SSW 6.9 mph11.1 kmh 30.02 in1016.6 mb - 0.01 in0.3 mm 0.01 in0.3 mm
11:30 AM 43.6°F6.4°C 41.2°F5.1°C 91% 3.4 mph S5.5 kmh S 5.8 mph9.3 kmh 30.02 in1016.6 mb - 0.01 in0.3 mm 0.01 in0.3 mm
11:24 AM 43.3°F6.3°C 40.8°F4.9°C 91% 3.4 mph S5.5 kmh S 9.2 mph14.8 kmh 30.02 in1016.6 mb - 0.01 in0.3 mm 0.01 in0.3 mm
11:18 AM 43.2°F6.2°C 40.8°F4.9°C 91% 3.4 mph S5.5 kmh S 9.2 mph14.8 kmh 30.02 in1016.6 mb - 0.01 in0.3 mm 0.01 in0.3 mm
11:13 AM 42.9°F6.1°C 40.7°F4.8°C 92% 4.6 mph SSW7.4 kmh SSW 5.8 mph9.3 kmh 30.02 in1016.6 mb - 0.01 in0.3 mm 0.01 in0.3 mm
11:07 AM 42.7°F5.9°C 40.3°F4.6°C 91% 3.4 mph S5.5 kmh S 4.6 mph7.4 kmh 30.02 in1016.6 mb - 0.01 in0.3 mm 0.01 in0.3 mm
11:01 AM 42.4°F5.8°C 39.9°F4.4°C 91% 3.4 mph S5.5 kmh S 6.9 mph11.1 kmh 30.02 in1016.6 mb - 0.01 in0.3 mm 0.01 in0.3 mm
10:56 AM 42.2°F5.7°C 39.8°F4.3°C 91% 2.3 mph S3.7 kmh S 3.4 mph5.5 kmh 30.01 in1016.3 mb - 0.01 in0.3 mm 0.01 in0.3 mm
10:50 AM 41.7°F5.4°C 39.6°F4.2°C 92% 2.3 mph SSE3.7 kmh SSE 3.4 mph5.5 kmh 30.01 in1016.3 mb - 0.01 in0.3 mm 0.01 in0.3 mm
10:45 AM 41.6°F5.3°C 39.2°F4.0°C 91% 2.3 mph SSE3.7 kmh SSE 4.6 mph7.4 kmh 30.01 in1016.3 mb - 0.01 in0.3 mm 0.01 in0.3 mm
10:39 AM 40.7°F4.8°C 38.3°F3.5°C 91% 1.1 mph S1.8 kmh S 3.4 mph5.5 kmh 30.02 in1016.6 mb - 0.01 in0.3 mm 0.01 in0.3 mm
10:33 AM 40.4°F4.7°C 38.0°F3.3°C 91% Calm Calm 2.3 mph3.7 kmh 30.02 in1016.6 mb - 0.01 in0.3 mm 0.01 in0.3 mm
10:28 AM 40.0°F4.4°C 37.8°F3.2°C 92% Calm Calm 1.1 mph1.8 kmh 30.02 in1016.6 mb - 0.01 in0.3 mm 0.01 in0.3 mm
10:22 AM 39.7°F4.3°C 37.2°F2.9°C 91% 1.1 mph SE1.8 kmh SE 3.4 mph5.5 kmh 30.02 in1016.6 mb - 0.01 in0.3 mm 0.01 in0.3 mm
10:16 AM 39.2°F4.0°C 37.1°F2.8°C 92% Calm Calm -- 30.02 in1016.6 mb - 0.01 in0.3 mm 0.01 in0.3 mm
10:11 AM 39.0°F3.9°C 36.6°F2.6°C 91% Calm Calm -- 30.02 in1016.6 mb - 0.01 in0.3 mm 0.01 in0.3 mm
10:05 AM 38.4°F3.6°C 36.0°F2.2°C 91% Calm Calm -- 30.02 in1016.6 mb - 0.01 in0.3 mm 0.01 in0.3 mm
10:00 AM 38.3°F3.5°C 35.9°F2.2°C 91% Calm Calm -- 30.02 in1016.6 mb - 0.01 in0.3 mm 0.01 in0.3 mm
09:54 AM 37.9°F3.3°C 35.5°F1.9°C 91% Calm Calm -- 30.02 in1016.6 mb - 0.01 in0.3 mm 0.01 in0.3 mm
09:48 AM 37.7°F3.2°C 35.3°F1.8°C 91% 1.1 mph SE1.8 kmh SE 2.3 mph3.7 kmh 30.02 in1016.6 mb - 0.01 in0.3 mm 0.01 in0.3 mm
09:43 AM 37.4°F3.0°C 35.1°F1.7°C 91% Calm Calm -- 30.02 in1016.6 mb - 0.01 in0.3 mm 0.01 in0.3 mm
09:37 AM 37.2°F2.9°C 34.8°F1.6°C 91% Calm Calm -- 30.02 in1016.6 mb - 0.01 in0.3 mm 0.01 in0.3 mm
09:31 AM 37.0°F2.8°C 34.6°F1.4°C 91% Calm Calm -- 30.02 in1016.6 mb - 0.01 in0.3 mm 0.01 in0.3 mm
09:26 AM 36.8°F2.7°C 34.4°F1.3°C 91% Calm Calm 1.1 mph1.8 kmh 30.02 in1016.6 mb - 0.01 in0.3 mm 0.01 in0.3 mm
09:20 AM 36.7°F2.6°C 34.3°F1.3°C 91% Calm Calm -- 30.02 in1016.6 mb - 0.00 in0.0 mm 0.00 in0.0 mm
09:15 AM 36.7°F2.6°C 34.3°F1.3°C 91% Calm Calm -- 30.02 in1016.6 mb - 0.00 in0.0 mm 0.00 in0.0 mm
09:09 AM 36.6°F2.6°C 34.2°F1.2°C 91% Calm Calm -- 30.02 in1016.6 mb - 0.00 in0.0 mm 0.00 in0.0 mm
09:03 AM 36.6°F2.6°C 34.2°F1.2°C 91% Calm Calm -- 30.02 in1016.6 mb - 0.00 in0.0 mm 0.00 in0.0 mm
08:58 AM 36.6°F2.6°C 34.2°F1.2°C 91% Calm Calm -- 30.02 in1016.6 mb - 0.00 in0.0 mm 0.00 in0.0 mm
08:52 AM 36.6°F2.6°C 34.2°F1.2°C 91% Calm Calm -- 30.02 in1016.6 mb - 0.00 in0.0 mm 0.00 in0.0 mm
08:46 AM 36.6°F2.6°C 34.2°F1.2°C 91% Calm Calm -- 30.02 in1016.6 mb - 0.00 in0.0 mm 0.00 in0.0 mm
08:41 AM 36.7°F2.6°C 34.3°F1.3°C 91% Calm Calm -- 30.02 in1016.6 mb - 0.00 in0.0 mm 0.00 in0.0 mm
08:35 AM 36.8°F2.7°C 34.4°F1.3°C 91% Calm Calm -- 30.02 in1016.6 mb - 0.00 in0.0 mm 0.00 in0.0 mm
08:30 AM 36.9°F2.7°C 34.5°F1.4°C 91% Calm Calm -- 30.02 in1016.6 mb - 0.00 in0.0 mm 0.00 in0.0 mm
08:24 AM 36.9°F2.7°C 34.5°F1.4°C 91% Calm Calm -- 30.01 in1016.3 mb - 0.00 in0.0 mm 0.00 in0.0 mm
08:18 AM 36.9°F2.7°C 34.6°F1.4°C 91% 1.1 mph SE1.8 kmh SE 2.3 mph3.7 kmh 30.01 in1016.3 mb - 0.00 in0.0 mm 0.00 in0.0 mm
08:13 AM 37.0°F2.8°C 34.6°F1.4°C 91% 1.1 mph SE1.8 kmh SE 3.4 mph5.5 kmh 30.01 in1016.3 mb - 0.00 in0.0 mm 0.00 in0.0 mm
08:07 AM 37.0°F2.8°C 34.6°F1.4°C 91% Calm Calm 3.4 mph5.5 kmh 30.01 in1016.3 mb - 0.00 in0.0 mm 0.00 in0.0 mm
08:01 AM 36.9°F2.7°C 34.5°F1.4°C 91% 1.1 mph SE1.8 kmh SE 3.4 mph5.5 kmh 30.01 in1016.3 mb - 0.00 in0.0 mm 0.00 in0.0 mm
07:56 AM 36.9°F2.7°C 34.5°F1.4°C 91% 1.1 mph SE1.8 kmh SE 4.6 mph7.4 kmh 30.01 in1016.3 mb - 0.00 in0.0 mm 0.00 in0.0 mm
07:50 AM 36.9°F2.7°C 34.5°F1.4°C 91% Calm Calm -- 30.01 in1016.3 mb - 0.00 in0.0 mm 0.00 in0.0 mm
07:45 AM 36.9°F2.7°C 34.5°F1.4°C 91% Calm Calm -- 30.02 in1016.6 mb - 0.00 in0.0 mm 0.00 in0.0 mm
07:39 AM 36.8°F2.7°C 34.4°F1.3°C 91% Calm Calm -- 30.02 in1016.6 mb - 0.00 in0.0 mm 0.00 in0.0 mm
07:33 AM 36.8°F2.7°C 34.4°F1.3°C 91% Calm Calm -- 30.02 in1016.6 mb - 0.00 in0.0 mm 0.00 in0.0 mm
07:28 AM 36.8°F2.7°C 34.4°F1.3°C 91% Calm Calm -- 30.02 in1016.6 mb - 0.00 in0.0 mm 0.00 in0.0 mm
07:22 AM 36.8°F2.7°C 34.4°F1.3°C 91% Calm Calm -- 30.02 in1016.6 mb - 0.00 in0.0 mm 0.00 in0.0 mm
07:16 AM 36.7°F2.6°C 34.3°F1.3°C 91% 1.1 mph SE1.8 kmh SE 3.4 mph5.5 kmh 30.02 in1016.6 mb - 0.00 in0.0 mm 0.00 in0.0 mm
07:11 AM 36.7°F2.6°C 34.3°F1.3°C 91% 1.1 mph SE1.8 kmh SE 3.4 mph5.5 kmh 30.02 in1016.6 mb - 0.00 in0.0 mm 0.00 in0.0 mm
07:05 AM 36.6°F2.6°C 34.2°F1.2°C 91% Calm Calm 1.1 mph1.8 kmh 30.02 in1016.6 mb - 0.00 in0.0 mm 0.00 in0.0 mm
07:00 AM 36.6°F2.6°C 34.2°F1.2°C 91% Calm Calm 2.3 mph3.7 kmh 30.02 in1016.6 mb - 0.00 in0.0 mm 0.00 in0.0 mm
06:54 AM 36.5°F2.5°C 34.2°F1.2°C 91% Calm Calm 2.3 mph3.7 kmh 30.02 in1016.6 mb - 0.00 in0.0 mm 0.00 in0.0 mm
06:48 AM 36.5°F2.5°C 34.1°F1.2°C 91% Calm Calm 2.3 mph3.7 kmh 30.02 in1016.6 mb - 0.00 in0.0 mm 0.00 in0.0 mm
06:43 AM 36.5°F2.5°C 34.1°F1.2°C 91% Calm Calm -- 30.02 in1016.6 mb - 0.00 in0.0 mm 0.00 in0.0 mm
06:37 AM 36.4°F2.4°C 34.0°F1.1°C 91% 1.1 mph SE1.8 kmh SE 3.4 mph5.5 kmh 30.02 in1016.6 mb - 0.00 in0.0 mm 0.00 in0.0 mm
06:31 AM 36.4°F2.4°C 34.0°F1.1°C 91% Calm Calm -- 30.02 in1016.6 mb - 0.00 in0.0 mm 0.00 in0.0 mm
06:26 AM 36.4°F2.4°C 34.0°F1.1°C 91% 1.1 mph SE1.8 kmh SE 1.1 mph1.8 kmh 30.02 in1016.6 mb - 0.00 in0.0 mm 0.00 in0.0 mm
06:20 AM 36.3°F2.4°C 33.9°F1.1°C 91% Calm Calm 2.3 mph3.7 kmh 30.02 in1016.6 mb - 0.00 in0.0 mm 0.00 in0.0 mm
06:15 AM 36.3°F2.4°C 33.9°F1.1°C 91% Calm Calm 2.3 mph3.7 kmh 30.02 in1016.6 mb - 0.00 in0.0 mm 0.00 in0.0 mm
06:09 AM 36.2°F2.3°C 33.9°F1.1°C 91% Calm Calm 2.3 mph3.7 kmh 30.02 in1016.6 mb - 0.00 in0.0 mm 0.00 in0.0 mm
06:03 AM 36.2°F2.3°C 33.8°F1.0°C 91% Calm Calm 2.3 mph3.7 kmh 30.02 in1016.6 mb - 0.00 in0.0 mm 0.00 in0.0 mm
05:58 AM 36.2°F2.3°C 33.8°F1.0°C 91% 1.1 mph SE1.8 kmh SE 2.3 mph3.7 kmh 30.02 in1016.6 mb - 0.00 in0.0 mm 0.00 in0.0 mm
05:52 AM 36.2°F2.3°C 33.8°F1.0°C 91% 1.1 mph SE1.8 kmh SE 3.4 mph5.5 kmh 30.02 in1016.6 mb - 0.00 in0.0 mm 0.00 in0.0 mm
05:46 AM 36.2°F2.3°C 33.8°F1.0°C 91% 1.1 mph SE1.8 kmh SE 1.1 mph1.8 kmh 30.03 in1016.9 mb - 0.00 in0.0 mm 0.00 in0.0 mm
05:41 AM 36.2°F2.3°C 33.8°F1.0°C 91% Calm Calm 2.3 mph3.7 kmh 30.03 in1016.9 mb - 0.00 in0.0 mm 0.00 in0.0 mm
05:35 AM 36.1°F2.3°C 33.7°F0.9°C 91% Calm Calm -- 30.03 in1016.9 mb - 0.00 in0.0 mm 0.00 in0.0 mm
05:30 AM 36.1°F2.3°C 33.7°F0.9°C 91% 1.1 mph SE1.8 kmh SE 3.4 mph5.5 kmh 30.03 in1016.9 mb - 0.00 in0.0 mm 0.00 in0.0 mm
05:24 AM 36.1°F2.3°C 33.7°F0.9°C 91% 1.1 mph SE1.8 kmh SE 4.6 mph7.4 kmh 30.03 in1016.9 mb - 0.00 in0.0 mm 0.00 in0.0 mm
05:18 AM 36.1°F2.3°C 33.7°F0.9°C 91% Calm Calm 4.6 mph7.4 kmh 30.03 in1016.9 mb - 0.00 in0.0 mm 0.00 in0.0 mm
05:13 AM 36.0°F2.2°C 33.6°F0.9°C 91% 1.1 mph SE1.8 kmh SE 3.4 mph5.5 kmh 30.03 in1016.9 mb - 0.00 in0.0 mm 0.00 in0.0 mm
05:07 AM 36.0°F2.2°C 33.6°F0.9°C 91% 1.1 mph SE1.8 kmh SE 2.3 mph3.7 kmh 30.03 in1016.9 mb - 0.00 in0.0 mm 0.00 in0.0 mm
05:01 AM 36.0°F2.2°C 33.6°F0.9°C 91% 1.1 mph SE1.8 kmh SE 3.4 mph5.5 kmh 30.03 in1016.9 mb - 0.00 in0.0 mm 0.00 in0.0 mm
04:56 AM 36.0°F2.2°C 33.6°F0.9°C 91% 2.3 mph SE3.7 kmh SE 6.9 mph11.1 kmh 30.03 in1016.9 mb - 0.00 in0.0 mm 0.00 in0.0 mm
04:50 AM 36.0°F2.2°C 33.6°F0.9°C 91% 2.3 mph SSE3.7 kmh SSE 3.4 mph5.5 kmh 30.03 in1016.9 mb - 0.00 in0.0 mm 0.00 in0.0 mm
04:45 AM 36.0°F2.2°C 33.6°F0.9°C 91% 2.3 mph SSE3.7 kmh SSE 4.6 mph7.4 kmh 30.03 in1016.9 mb - 0.00 in0.0 mm 0.00 in0.0 mm
04:39 AM 36.0°F2.2°C 33.6°F0.9°C 91% Calm Calm -- 30.04 in1017.3 mb - 0.00 in0.0 mm 0.00 in0.0 mm
04:33 AM 36.0°F2.2°C 33.6°F0.9°C 91% 1.1 mph S1.8 kmh S 3.4 mph5.5 kmh 30.04 in1017.3 mb - 0.00 in0.0 mm 0.00 in0.0 mm
04:28 AM 36.0°F2.2°C 33.6°F0.9°C 91% Calm Calm -- 30.04 in1017.3 mb - 0.00 in0.0 mm 0.00 in0.0 mm
04:22 AM 36.0°F2.2°C 33.6°F0.9°C 91% 2.3 mph SE3.7 kmh SE 4.6 mph7.4 kmh 30.04 in1017.3 mb - 0.00 in0.0 mm 0.00 in0.0 mm
04:16 AM 35.9°F2.2°C 33.5°F0.8°C 91% 2.3 mph S3.7 kmh S 3.4 mph5.5 kmh 30.05 in1017.6 mb - 0.00 in0.0 mm 0.00 in0.0 mm
04:11 AM 35.9°F2.2°C 33.5°F0.8°C 91% 1.1 mph SE1.8 kmh SE 2.3 mph3.7 kmh 30.04 in1017.3 mb - 0.00 in0.0 mm 0.00 in0.0 mm
04:05 AM 35.9°F2.2°C 33.5°F0.8°C 91% 1.1 mph SE1.8 kmh SE 2.3 mph3.7 kmh 30.05 in1017.6 mb - 0.00 in0.0 mm 0.00 in0.0 mm
04:00 AM 35.9°F2.2°C 33.5°F0.8°C 91% 1.1 mph SE1.8 kmh SE 4.6 mph7.4 kmh 30.05 in1017.6 mb - 0.00 in0.0 mm 0.00 in0.0 mm
03:54 AM 35.9°F2.2°C 33.5°F0.8°C 91% 1.1 mph SE1.8 kmh SE 4.6 mph7.4 kmh 30.05 in1017.6 mb - 0.00 in0.0 mm 0.00 in0.0 mm
03:48 AM 35.9°F2.2°C 33.5°F0.8°C 91% 2.3 mph SE3.7 kmh SE 3.4 mph5.5 kmh 30.05 in1017.6 mb - 0.00 in0.0 mm 0.00 in0.0 mm
03:43 AM 35.9°F2.2°C 33.5°F0.8°C 91% 1.1 mph SE1.8 kmh SE 3.4 mph5.5 kmh 30.04 in1017.3 mb - 0.00 in0.0 mm 0.00 in0.0 mm
03:37 AM 35.9°F2.2°C 33.5°F0.8°C 91% Calm Calm 4.6 mph7.4 kmh 30.05 in1017.6 mb - 0.00 in0.0 mm 0.00 in0.0 mm
03:31 AM 35.9°F2.2°C 33.5°F0.8°C 91% 2.3 mph SSE3.7 kmh SSE 5.8 mph9.3 kmh 30.05 in1017.6 mb - 0.00 in0.0 mm 0.00 in0.0 mm
03:26 AM 35.9°F2.2°C 33.5°F0.8°C 91% 1.1 mph SE1.8 kmh SE 4.6 mph7.4 kmh 30.05 in1017.6 mb - 0.00 in0.0 mm 0.00 in0.0 mm
03:20 AM 36.0°F2.2°C 33.6°F0.9°C 91% Calm Calm -- 30.05 in1017.6 mb - 0.00 in0.0 mm 0.00 in0.0 mm
03:15 AM 36.0°F2.2°C 33.6°F0.9°C 91% 1.1 mph SE1.8 kmh SE 4.6 mph7.4 kmh 30.06 in1017.9 mb - 0.00 in0.0 mm 0.00 in0.0 mm
03:09 AM 36.0°F2.2°C 33.6°F0.9°C 91% Calm Calm 3.4 mph5.5 kmh 30.06 in1017.9 mb - 0.00 in0.0 mm 0.00 in0.0 mm
03:03 AM 36.0°F2.2°C 33.6°F0.9°C 91% Calm Calm -- 30.06 in1017.9 mb - 0.00 in0.0 mm 0.00 in0.0 mm
02:58 AM 36.0°F2.2°C 33.6°F0.9°C 91% 1.1 mph SSE1.8 kmh SSE 4.6 mph7.4 kmh 30.06 in1017.9 mb - 0.00 in0.0 mm 0.00 in0.0 mm
02:52 AM 36.0°F2.2°C 33.6°F0.9°C 91% Calm Calm -- 30.06 in1017.9 mb - 0.00 in0.0 mm 0.00 in0.0 mm
02:46 AM 36.0°F2.2°C 33.7°F0.9°C 91% 1.1 mph SE1.8 kmh SE 3.4 mph5.5 kmh 30.07 in1018.3 mb - 0.00 in0.0 mm 0.00 in0.0 mm
02:41 AM 36.0°F2.2°C 33.7°F0.9°C 91% Calm Calm 3.4 mph5.5 kmh 30.06 in1017.9 mb - 0.00 in0.0 mm 0.00 in0.0 mm
02:35 AM 36.1°F2.3°C 33.7°F0.9°C 91% 1.1 mph SSE1.8 kmh SSE 1.1 mph1.8 kmh 30.06 in1017.9 mb - 0.00 in0.0 mm 0.00 in0.0 mm
02:30 AM 36.2°F2.3°C 33.8°F1.0°C 91% 2.3 mph SE3.7 kmh SE 3.4 mph5.5 kmh 30.07 in1018.3 mb - 0.00 in0.0 mm 0.00 in0.0 mm
02:24 AM 36.2°F2.3°C 33.8°F1.0°C 91% 1.1 mph SE1.8 kmh SE 2.3 mph3.7 kmh 30.07 in1018.3 mb - 0.00 in0.0 mm 0.00 in0.0 mm
02:18 AM 36.2°F2.3°C 33.8°F1.0°C 91% Calm Calm -- 30.07 in1018.3 mb - 0.00 in0.0 mm 0.00 in0.0 mm
02:13 AM 36.2°F2.3°C 33.8°F1.0°C 91% Calm Calm -- 30.07 in1018.3 mb - 0.00 in0.0 mm 0.00 in0.0 mm
02:07 AM 36.2°F2.3°C 33.8°F1.0°C 91% Calm Calm -- 30.07 in1018.3 mb - 0.00 in0.0 mm 0.00 in0.0 mm
02:01 AM 36.2°F2.3°C 33.8°F1.0°C 91% 1.1 mph SSE1.8 kmh SSE 3.4 mph5.5 kmh 30.07 in1018.3 mb - 0.00 in0.0 mm 0.00 in0.0 mm
01:56 AM 36.2°F2.3°C 33.8°F1.0°C 91% 1.1 mph SSE1.8 kmh SSE 3.4 mph5.5 kmh 30.07 in1018.3 mb - 0.00 in0.0 mm 0.00 in0.0 mm
01:50 AM 36.1°F2.3°C 33.8°F1.0°C 91% Calm Calm -- 30.07 in1018.3 mb - 0.00 in0.0 mm 0.00 in0.0 mm
01:45 AM 36.1°F2.3°C 33.7°F0.9°C 91% Calm Calm -- 30.07 in1018.3 mb - 0.00 in0.0 mm 0.00 in0.0 mm
01:39 AM 36.1°F2.3°C 33.7°F0.9°C 91% 1.1 mph SE1.8 kmh SE 3.4 mph5.5 kmh 30.08 in1018.6 mb - 0.00 in0.0 mm 0.00 in0.0 mm
01:33 AM 36.1°F2.3°C 33.7°F0.9°C 91% 1.1 mph SE1.8 kmh SE 3.4 mph5.5 kmh 30.08 in1018.6 mb - 0.00 in0.0 mm 0.00 in0.0 mm
01:28 AM 36.2°F2.3°C 33.8°F1.0°C 91% 1.1 mph SSE1.8 kmh SSE 6.9 mph11.1 kmh 30.08 in1018.6 mb - 0.00 in0.0 mm 0.00 in0.0 mm
01:22 AM 36.2°F2.3°C 33.8°F1.0°C 91% 1.1 mph SE1.8 kmh SE 3.4 mph5.5 kmh 30.08 in1018.6 mb - 0.00 in0.0 mm 0.00 in0.0 mm
01:16 AM 36.2°F2.3°C 33.8°F1.0°C 91% 2.3 mph SE3.7 kmh SE 3.4 mph5.5 kmh 30.09 in1019.0 mb - 0.00 in0.0 mm 0.00 in0.0 mm
01:11 AM 36.2°F2.3°C 33.9°F1.1°C 91% 2.3 mph SE3.7 kmh SE 8.0 mph12.9 kmh 30.09 in1019.0 mb - 0.00 in0.0 mm 0.00 in0.0 mm
01:05 AM 36.3°F2.4°C 33.9°F1.1°C 91% 1.1 mph SSE1.8 kmh SSE 5.8 mph9.3 kmh 30.09 in1019.0 mb - 0.00 in0.0 mm 0.00 in0.0 mm
01:00 AM 36.3°F2.4°C 33.9°F1.1°C 91% 2.3 mph SE3.7 kmh SE 3.4 mph5.5 kmh 30.09 in1019.0 mb - 0.00 in0.0 mm 0.00 in0.0 mm
12:54 AM 36.3°F2.4°C 33.9°F1.1°C 91% 2.3 mph SE3.7 kmh SE 4.6 mph7.4 kmh 30.09 in1019.0 mb - 0.00 in0.0 mm 0.00 in0.0 mm
12:48 AM 36.4°F2.4°C 34.0°F1.1°C 91% 3.4 mph SE5.5 kmh SE 8.0 mph12.9 kmh 30.10 in1019.3 mb - 0.00 in0.0 mm 0.00 in0.0 mm
12:43 AM 36.4°F2.4°C 34.0°F1.1°C 91% 2.3 mph SE3.7 kmh SE 4.6 mph7.4 kmh 30.10 in1019.3 mb - 0.00 in0.0 mm 0.00 in0.0 mm
12:37 AM 36.4°F2.4°C 34.1°F1.2°C 91% 1.1 mph SE1.8 kmh SE 4.6 mph7.4 kmh 30.10 in1019.3 mb - 0.00 in0.0 mm 0.00 in0.0 mm
12:31 AM 36.6°F2.6°C 34.2°F1.2°C 91% 2.3 mph SE3.7 kmh SE 4.6 mph7.4 kmh 30.10 in1019.3 mb - 0.00 in0.0 mm 0.00 in0.0 mm
12:26 AM 36.6°F2.6°C 34.2°F1.2°C 91% 2.3 mph SE3.7 kmh SE 4.6 mph7.4 kmh 30.10 in1019.3 mb - 0.00 in0.0 mm 0.00 in0.0 mm
12:20 AM 36.6°F2.6°C 34.2°F1.2°C 91% 1.1 mph SE1.8 kmh SE 4.6 mph7.4 kmh 30.10 in1019.3 mb - 0.00 in0.0 mm 0.00 in0.0 mm
12:15 AM 36.6°F2.6°C 34.2°F1.2°C 91% 1.1 mph SE1.8 kmh SE 2.3 mph3.7 kmh 30.10 in1019.3 mb - 0.00 in0.0 mm 0.00 in0.0 mm
12:09 AM 36.6°F2.6°C 34.3°F1.3°C 91% 1.1 mph SE1.8 kmh SE 2.3 mph3.7 kmh 30.10 in1019.3 mb - 0.00 in0.0 mm 0.00 in0.0 mm
12:03 AM 36.7°F2.6°C 34.3°F1.3°C 91% 1.1 mph SE1.8 kmh SE 2.3 mph3.7 kmh 30.10 in1019.3 mb - 0.00 in0.0 mm 0.00 in0.0 mm